Time;durP1;ratioP1;P1;durP2;ratioP2;P2;SDS_P1;SDS_P2;PMS_P1;PMS_P2;Temp;Humidity;BMP_temperature;BMP_pressure;BME280_temperature;BME280_humidity;BME280_pressure;Samples;Min_cycle;Max_cycle;Signal;HPM_P1;HPM_P2
2023/08/26 00:00:46;;;;;;;15.03;13.47;;;;;;;20.14;100.00;99473.91;5005847;28;20280;-67
2023/08/26 00:03:13;;;;;;;15.40;13.03;;;;;;;20.15;100.00;99485.16;5037077;28;20197;-67
2023/08/26 00:05:39;;;;;;;14.33;12.80;;;;;;;20.19;100.00;99470.78;5038728;28;20188;-67
2023/08/26 00:08:04;;;;;;;16.47;13.60;;;;;;;20.22;100.00;99461.81;5030498;28;20191;-66
2023/08/26 00:10:30;;;;;;;16.77;12.53;;;;;;;20.27;100.00;99460.38;5035041;28;20278;-65
2023/08/26 00:12:55;;;;;;;15.47;12.87;;;;;;;20.20;100.00;99453.34;5028839;28;20545;-65
2023/08/26 00:15:20;;;;;;;15.73;14.13;;;;;;;20.25;100.00;99459.69;5041118;28;21487;-65
2023/08/26 00:17:46;;;;;;;14.57;13.07;;;;;;;20.25;100.00;99462.31;5031430;28;20174;-65
2023/08/26 00:20:11;;;;;;;16.07;12.37;;;;;;;20.26;100.00;99461.34;5026189;28;20268;-65
2023/08/26 00:22:37;;;;;;;12.47;11.20;;;;;;;20.24;100.00;99468.53;5023104;28;20223;-67
2023/08/26 00:25:03;;;;;;;12.10;10.90;;;;;;;20.22;100.00;99461.81;5010203;28;20175;-66
2023/08/26 00:27:28;;;;;;;12.27;10.97;;;;;;;20.25;100.00;99451.06;5011051;28;20662;-68
2023/08/26 00:29:54;;;;;;;12.37;11.07;;;;;;;20.16;100.00;99443.22;4999974;28;20210;-64
2023/08/26 00:32:19;;;;;;;13.67;10.33;;;;;;;20.13;100.00;99440.13;5028613;28;20282;-65
2023/08/26 00:34:44;;;;;;;12.23;10.20;;;;;;;20.17;100.00;99457.09;5040779;28;20181;-66
2023/08/26 00:37:09;;;;;;;10.27;9.27;;;;;;;20.14;100.00;99458.25;5031233;28;20236;-66
2023/08/26 00:39:35;;;;;;;10.73;9.17;;;;;;;20.16;100.00;99465.91;5041740;28;20260;-67
2023/08/26 00:42:00;;;;;;;9.50;8.57;;;;;;;20.18;100.00;99468.34;5014703;28;20222;-67
2023/08/26 00:44:25;;;;;;;16.33;9.07;;;;;;;20.19;100.00;99464.78;5014351;28;20196;-68
2023/08/26 00:46:51;;;;;;;13.13;9.77;;;;;;;20.20;100.00;99458.56;5019589;28;20681;-64
2023/08/26 00:49:17;;;;;;;11.03;9.00;;;;;;;20.16;100.00;99460.69;5015872;28;20187;-65
2023/08/26 00:51:43;;;;;;;10.83;9.43;;;;;;;20.16;100.00;99476.34;5010310;28;20229;-64
2023/08/26 00:54:09;;;;;;;9.53;8.53;;;;;;;20.16;100.00;99477.16;5034593;28;20216;-65
2023/08/26 00:56:34;;;;;;;10.47;9.37;;;;;;;20.17;100.00;99470.16;5031975;28;20206;-65
2023/08/26 00:59:00;;;;;;;10.33;8.90;;;;;;;20.15;100.00;99469.50;5028067;28;20183;-64
2023/08/26 01:01:27;;;;;;;16.03;10.00;;;;;;;20.11;100.00;99473.41;5021948;28;20221;-65
2023/08/26 01:03:53;;;;;;;12.93;8.37;;;;;;;20.15;100.00;99485.97;5035150;28;20206;-64
2023/08/26 01:06:18;;;;;;;10.30;8.97;;;;;;;20.21;100.00;99481.91;5027655;28;20678;-64
2023/08/26 01:08:43;;;;;;;11.67;9.03;;;;;;;20.24;100.00;99473.75;5032007;28;20236;-66
2023/08/26 01:11:21;;;;;;;11.50;9.27;;;;;;;20.18;100.00;99487.47;5025201;28;20220;-65
2023/08/26 01:13:57;;;;;;;10.17;9.17;;;;;;;20.16;100.00;99471.13;5037657;28;20186;-65
2023/08/26 01:16:23;;;;;;;10.57;9.23;;;;;;;20.19;100.00;99441.28;5028911;28;20182;-65
2023/08/26 01:18:49;;;;;;;10.20;9.23;;;;;;;20.28;100.00;99450.72;5031633;28;20178;-65
2023/08/26 01:21:18;;;;;;;10.40;9.20;;;;;;;20.23;100.00;99463.47;5029160;28;20669;-65
2023/08/26 01:23:44;;;;;;;12.27;9.47;;;;;;;20.18;100.00;99463.13;5038189;28;20185;-65
2023/08/26 01:26:09;;;;;;;9.80;8.80;;;;;;;20.12;100.00;99467.22;5029498;28;20194;-65
2023/08/26 01:28:35;;;;;;;14.87;9.40;;;;;;;20.18;100.00;99477.03;5032810;28;20601;-66
2023/08/26 01:31:12;;;;;;;12.13;9.83;;;;;;;20.12;100.00;99478.47;5029603;28;20746;-66
2023/08/26 01:34:00;;;;;;;9.93;8.77;;;;;;;19.99;100.00;99478.13;5028187;28;20182;-66
2023/08/26 01:36:27;;;;;;;13.07;10.00;;;;;;;20.06;100.00;99483.53;5032681;28;20297;-66
2023/08/26 01:38:55;;;;;;;12.43;9.17;;;;;;;20.10;100.00;99482.22;5028707;28;20190;-66
2023/08/26 01:41:21;;;;;;;9.77;8.77;;;;;;;20.02;100.00;99490.03;5013151;28;20261;-65
2023/08/26 01:43:48;;;;;;;15.67;9.53;;;;;;;20.10;100.00;99498.69;5010316;28;20265;-65
2023/08/26 01:46:17;;;;;;;12.47;9.20;;;;;;;20.03;100.00;99497.69;5012128;28;20202;-65
2023/08/26 01:48:42;;;;;;;11.23;9.03;;;;;;;19.92;100.00;99496.22;5012307;28;20187;-65
2023/08/26 01:51:08;;;;;;;13.03;8.50;;;;;;;19.98;100.00;99499.97;5019358;28;20248;-66
2023/08/26 01:53:33;;;;;;;10.13;8.20;;;;;;;19.88;100.00;99494.88;5004482;28;20206;-65
2023/08/26 01:55:59;;;;;;;13.30;8.17;;;;;;;19.79;100.00;99491.41;5027831;28;20540;-66
2023/08/26 01:58:24;;;;;;;11.90;7.47;;;;;;;19.69;100.00;99501.16;5032417;28;20190;-66
2023/08/26 02:00:49;;;;;;;8.83;7.00;;;;;;;19.65;100.00;99513.69;5021287;28;20305;-66
2023/08/26 02:03:15;;;;;;;9.27;7.27;;;;;;;19.60;100.00;99500.31;5021517;28;20206;-66
2023/08/26 02:05:40;;;;;;;9.60;6.80;;;;;;;19.64;100.00;99503.44;5011128;28;20174;-65
2023/08/26 02:08:05;;;;;;;7.90;7.03;;;;;;;19.75;100.00;99497.13;5012321;28;20225;-66
2023/08/26 02:10:30;;;;;;;8.60;7.00;;;;;;;19.65;100.00;99502.47;5006646;28;20214;-66
2023/08/26 02:12:56;;;;;;;7.63;6.50;;;;;;;19.66;100.00;99498.88;5024229;28;20191;-65
2023/08/26 02:15:21;;;;;;;11.17;6.70;;;;;;;19.70;100.00;99510.63;5023458;28;20637;-65
2023/08/26 02:17:47;;;;;;;11.03;7.77;;;;;;;19.65;100.00;99505.06;5031553;28;20186;-66
2023/08/26 02:20:12;;;;;;;8.27;6.80;;;;;;;19.59;100.00;99506.50;5021474;28;20546;-66
2023/08/26 02:22:37;;;;;;;10.53;6.53;;;;;;;19.48;100.00;99506.78;5025543;28;20234;-65
2023/08/26 02:25:03;;;;;;;7.83;6.27;;;;;;;19.32;100.00;99510.13;5011693;28;20214;-65
2023/08/26 02:27:28;;;;;;;8.07;6.53;;;;;;;19.22;100.00;99515.44;5012061;28;20211;-65
2023/08/26 02:29:53;;;;;;;10.53;6.43;;;;;;;19.25;100.00;99515.16;5011623;28;20213;-65
2023/08/26 02:32:19;;;;;;;7.73;6.70;;;;;;;19.21;100.00;99518.22;5026890;28;20222;-65
2023/08/26 02:34:44;;;;;;;9.67;6.40;;;;;;;19.18;100.00;99527.16;5026341;28;20220;-65
2023/08/26 02:37:09;;;;;;;7.43;6.50;;;;;;;19.13;100.00;99532.03;5031831;28;20193;-66
2023/08/26 02:39:34;;;;;;;8.03;6.63;;;;;;;19.13;100.00;99534.63;5030292;28;20235;-64
2023/08/26 02:42:00;;;;;;;12.63;6.37;;;;;;;19.06;100.00;99539.63;5020339;28;20308;-66
2023/08/26 02:44:25;;;;;;;10.70;7.57;;;;;;;18.98;100.00;99547.41;5011645;28;20592;-66
2023/08/26 02:46:50;;;;;;;11.53;7.30;;;;;;;18.95;100.00;99560.72;5011804;28;20191;-66
2023/08/26 02:49:15;;;;;;;12.70;7.43;;;;;;;18.90;100.00;99562.94;5011513;28;20198;-66
2023/08/26 02:51:41;;;;;;;7.13;6.43;;;;;;;18.83;100.00;99560.94;5019877;28;20218;-66
2023/08/26 02:54:06;;;;;;;9.67;6.77;;;;;;;18.81;100.00;99559.44;5028220;28;20186;-65
2023/08/26 02:56:31;;;;;;;12.13;6.97;;;;;;;18.95;100.00;99558.94;5034696;28;20259;-65
2023/08/26 02:58:57;;;;;;;13.03;7.30;;;;;;;19.08;100.00;99558.53;5035254;28;20577;-66
2023/08/26 03:01:24;;;;;;;7.73;6.10;;;;;;;19.10;100.00;99561.81;5024262;28;20225;-66
2023/08/26 03:03:49;;;;;;;7.97;6.77;;;;;;;19.14;100.00;99568.34;5019847;28;20202;-66
2023/08/26 03:06:14;;;;;;;7.00;6.20;;;;;;;19.14;100.00;99572.75;5014715;28;20329;-66
2023/08/26 03:08:40;;;;;;;7.03;6.43;;;;;;;19.15;100.00;99577.81;5015259;28;20183;-66
2023/08/26 03:11:07;;;;;;;9.87;6.47;;;;;;;19.14;100.00;99586.59;5013386;28;20225;-66
2023/08/26 03:13:33;;;;;;;10.00;6.23;;;;;;;19.13;100.00;99590.19;5022058;28;20594;-66
2023/08/26 03:16:06;;;;;;;9.90;6.07;;;;;;;19.15;100.00;99590.03;5014495;28;20190;-66
2023/08/26 03:18:31;;;;;;;9.10;6.57;;;;;;;19.15;100.00;99587.41;5013627;28;20187;-66
2023/08/26 03:21:02;;;;;;;12.50;5.87;;;;;;;18.92;100.00;99587.09;5019378;28;20248;-66
2023/08/26 03:23:27;;;;;;;5.40;4.87;;;;;;;18.95;100.00;99590.22;5030517;28;20182;-66
2023/08/26 03:25:55;;;;;;;7.20;5.40;;;;;;;18.90;100.00;99594.19;5027320;28;20642;-66
2023/08/26 03:28:20;;;;;;;7.13;4.73;;;;;;;18.98;100.00;99604.72;5029731;28;20277;-67
2023/08/26 03:30:45;;;;;;;7.23;4.60;;;;;;;18.87;100.00;99605.75;5004608;28;20809;-66
2023/08/26 03:33:10;;;;;;;7.10;4.57;;;;;;;18.86;100.00;99604.09;5024558;28;20201;-65
2023/08/26 03:35:38;;;;;;;7.40;4.20;;;;;;;18.82;100.00;99602.78;5014738;28;20542;-66
2023/08/26 03:38:04;;;;;;;8.73;4.63;;;;;;;18.77;100.00;99597.19;5014977;28;20630;-67
2023/08/26 03:40:29;;;;;;;5.70;4.00;;;;;;;18.86;100.00;99607.50;5011818;28;20227;-66
2023/08/26 03:42:54;;;;;;;5.93;4.03;;;;;;;18.85;100.00;99605.06;5033352;28;20641;-66
2023/08/26 03:45:19;;;;;;;8.90;4.00;;;;;;;18.86;100.00;99609.31;5034089;28;20178;-66
2023/08/26 03:47:45;;;;;;;7.63;3.97;;;;;;;18.82;100.00;99616.59;5034066;28;20194;-66
2023/08/26 03:50:10;;;;;;;7.23;4.00;;;;;;;18.84;100.00;99617.28;5023293;28;20239;-66
2023/08/26 03:52:36;;;;;;;10.10;3.93;;;;;;;18.79;100.00;99622.13;5028751;28;20190;-66
2023/08/26 03:55:02;;;;;;;8.37;3.73;;;;;;;18.76;100.00;99630.22;5014329;28;20182;-66
2023/08/26 03:57:27;;;;;;;5.73;3.40;;;;;;;18.71;100.00;99637.69;5014506;28;20206;-66
2023/08/26 03:59:53;;;;;;;7.10;3.77;;;;;;;18.70;100.00;99636.03;5012989;28;20182;-66
2023/08/26 04:02:18;;;;;;;7.30;3.77;;;;;;;18.68;100.00;99630.97;5038093;28;20332;-65
2023/08/26 04:04:43;;;;;;;6.43;3.60;;;;;;;18.66;100.00;99634.69;5031807;28;20279;-64
2023/08/26 04:07:08;;;;;;;7.10;3.70;;;;;;;18.49;100.00;99631.94;5033235;28;20271;-64
2023/08/26 04:09:35;;;;;;;6.77;3.70;;;;;;;18.44;100.00;99623.72;5033995;28;20188;-64
2023/08/26 04:12:00;;;;;;;5.90;3.33;;;;;;;18.51;100.00;99627.38;5007158;28;20226;-64
2023/08/26 04:14:25;;;;;;;5.20;3.50;;;;;;;18.44;100.00;99621.13;5006987;28;20185;-66
2023/08/26 04:16:50;;;;;;;8.47;3.73;;;;;;;18.35;100.00;99628.00;5013935;28;20225;-66
2023/08/26 04:19:16;;;;;;;5.23;3.50;;;;;;;18.36;100.00;99627.06;5013870;28;20541;-66
2023/08/26 04:21:41;;;;;;;5.07;3.13;;;;;;;18.29;100.00;99635.59;5015913;28;20233;-65
2023/08/26 04:24:07;;;;;;;6.87;3.73;;;;;;;18.12;100.00;99647.59;5016060;28;20244;-65
2023/08/26 04:26:32;;;;;;;6.27;4.27;;;;;;;17.93;100.00;99645.88;5012232;28;20574;-65
2023/08/26 04:28:57;;;;;;;5.97;3.37;;;;;;;17.88;100.00;99652.28;5013839;28;20226;-66
2023/08/26 04:31:23;;;;;;;4.37;3.10;;;;;;;17.95;100.00;99650.00;5023585;28;20694;-66
2023/08/26 04:33:48;;;;;;;6.87;3.57;;;;;;;18.01;100.00;99659.84;5031268;28;20205;-64
2023/08/26 04:36:13;;;;;;;5.50;3.37;;;;;;;17.95;100.00;99657.81;5033440;28;20205;-65
2023/08/26 04:38:39;;;;;;;3.90;3.17;;;;;;;17.83;100.00;99657.09;5033752;28;20210;-65
2023/08/26 04:41:04;;;;;;;5.80;3.40;;;;;;;17.85;100.00;99660.41;5023013;28;20218;-66
2023/08/26 04:43:29;;;;;;;8.53;3.53;;;;;;;17.75;100.00;99670.84;5021032;28;20261;-65
2023/08/26 04:45:55;;;;;;;4.13;3.30;;;;;;;17.78;100.00;99666.31;5012670;28;20221;-65
2023/08/26 04:48:20;;;;;;;6.30;3.03;;;;;;;17.75;100.00;99670.84;5012454;28;20556;-65
2023/08/26 04:50:45;;;;;;;8.93;2.80;;;;;;;17.57;100.00;99677.72;5014619;28;20260;-65
2023/08/26 04:53:11;;;;;;;6.80;2.90;;;;;;;17.53;100.00;99687.56;5035135;28;20664;-65
2023/08/26 04:55:36;;;;;;;6.17;2.27;;;;;;;17.61;100.00;99689.47;5032961;28;20186;-65
2023/08/26 04:58:02;;;;;;;4.90;2.20;;;;;;;17.57;100.00;99691.53;5032955;28;20220;-65
2023/08/26 05:00:28;;;;;;;4.20;2.30;;;;;;;17.54;100.00;99696.22;5022519;28;20217;-66
2023/08/26 05:02:53;;;;;;;3.67;2.30;;;;;;;17.47;100.00;99705.50;5012206;28;20641;-66
2023/08/26 05:05:19;;;;;;;3.03;2.20;;;;;;;17.43;100.00;99707.56;5013059;28;20183;-65
2023/08/26 05:07:44;;;;;;;8.83;2.50;;;;;;;17.45;100.00;99694.41;5013113;28;20209;-65
2023/08/26 05:10:10;;;;;;;5.20;2.40;;;;;;;17.46;100.00;99704.69;5002738;28;20647;-66
2023/08/26 05:12:35;;;;;;;5.33;2.10;;;;;;;17.59;100.00;99705.22;5027371;28;20178;-65
2023/08/26 05:15:01;;;;;;;4.80;2.00;;;;;;;17.58;100.00;99711.38;5012731;28;20237;-66
2023/08/26 05:17:26;;;;;;;6.77;2.57;;;;;;;17.64;100.00;99717.81;5012887;28;20167;-66
2023/08/26 05:19:51;;;;;;;3.20;1.70;;;;;;;17.69;100.00;99722.59;5011931;28;20305;-65
2023/08/26 05:22:17;;;;;;;4.33;1.87;;;;;;;17.65;100.00;99727.25;5030004;28;20326;-65
2023/08/26 05:24:42;;;;;;;4.90;2.03;;;;;;;17.75;100.00;99719.44;5025388;28;20272;-66
2023/08/26 05:27:07;;;;;;;5.37;2.40;;;;;;;17.81;100.00;99724.09;5032646;28;20703;-65
2023/08/26 05:29:33;;;;;;;4.57;1.90;;;;;;;17.79;100.00;99720.78;5032605;28;20237;-65
2023/08/26 05:31:59;;;;;;;3.03;1.90;;;;;;;17.64;100.00;99728.22;5007828;28;20241;-66
2023/08/26 05:34:24;;;;;;;5.33;2.30;;;;;;;17.69;100.00;99731.22;5011219;28;20186;-66
2023/08/26 05:36:49;;;;;;;6.47;1.87;;;;;;;17.64;100.00;99735.19;5011472;28;20183;-65
2023/08/26 05:39:15;;;;;;;5.27;2.20;;;;;;;17.59;100.00;99736.41;5013098;28;20554;-65
2023/08/26 05:41:40;;;;;;;6.97;2.30;;;;;;;17.68;100.00;99739.97;5014775;28;20242;-66
2023/08/26 05:44:06;;;;;;;3.87;2.20;;;;;;;17.82;100.00;99743.91;5014973;28;20182;-66
2023/08/26 05:46:31;;;;;;;6.03;2.40;;;;;;;17.87;100.00;99738.31;5010856;28;20190;-64
2023/08/26 05:48:56;;;;;;;9.30;2.27;;;;;;;17.82;100.00;99746.53;5010702;28;20210;-64
2023/08/26 05:51:22;;;;;;;3.97;2.17;;;;;;;17.82;100.00;99754.31;5015014;28;20221;-66
2023/08/26 05:53:47;;;;;;;5.47;2.50;;;;;;;17.84;100.00;99754.22;5037146;28;20185;-65
2023/08/26 05:56:12;;;;;;;4.27;2.10;;;;;;;17.65;100.00;99762.84;5031468;28;20178;-65
2023/08/26 05:58:37;;;;;;;3.40;2.07;;;;;;;17.49;100.00;99760.78;5032119;28;20182;-65
2023/08/26 06:01:03;;;;;;;7.70;2.20;;;;;;;17.55;100.00;99765.44;5020953;28;20229;-66
2023/08/26 06:03:29;;;;;;;4.83;1.90;;;;;;;17.54;100.00;99767.22;5019964;28;20185;-65
2023/08/26 06:05:54;;;;;;;2.87;1.83;;;;;;;17.50;100.00;99776.28;5010072;28;20228;-66
2023/08/26 06:08:19;;;;;;;3.60;2.30;;;;;;;17.62;100.00;99773.53;5012031;28;20178;-66
2023/08/26 06:10:44;;;;;;;4.70;2.03;;;;;;;17.57;100.00;99774.72;5003002;28;20221;-65
2023/08/26 06:13:10;;;;;;;5.83;2.13;;;;;;;17.65;100.00;99775.84;5022191;28;20190;-65
2023/08/26 06:15:35;;;;;;;2.97;1.80;;;;;;;17.69;100.00;99783.22;5011501;28;20174;-66
2023/08/26 06:18:01;;;;;;;4.20;1.83;;;;;;;17.83;100.00;99786.38;5012301;28;20220;-66
2023/08/26 06:20:26;;;;;;;5.67;1.80;;;;;;;17.89;100.00;99789.25;5003507;28;20230;-67
2023/08/26 06:22:52;;;;;;;2.90;1.67;;;;;;;18.01;100.00;99791.72;5024123;28;20175;-66
2023/08/26 06:25:17;;;;;;;2.73;1.50;;;;;;;18.03;100.00;99784.59;5011429;28;20178;-66
2023/08/26 06:31:04;;;;;;;2.23;1.40;;;;;;;18.33;100.00;99782.75;5013178;28;20267;-66
2023/08/26 06:33:29;;;;;;;2.93;1.77;;;;;;;18.42;100.00;99775.84;5045555;28;20637;-67
2023/08/26 06:35:54;;;;;;;3.90;1.57;;;;;;;18.62;100.00;99780.03;5037804;28;20186;-66
2023/08/26 06:38:20;;;;;;;3.57;1.83;;;;;;;18.92;100.00;99780.75;5036708;28;20224;-66
2023/08/26 06:40:57;;;;;;;4.43;1.77;;;;;;;19.18;100.00;99793.09;5027570;28;20251;-65
2023/08/26 06:43:23;;;;;;;2.90;1.50;;;;;;;19.08;100.00;99776.69;5016851;28;20206;-67
2023/08/26 06:45:49;;;;;;;4.93;1.30;;;;;;;19.14;100.00;99789.94;5016571;28;20206;-67
2023/08/26 06:48:15;;;;;;;3.17;1.40;;;;;;;18.85;100.00;99787.47;5018225;28;20214;-66
2023/08/26 06:50:41;;;;;;;2.90;1.57;;;;;;;18.99;100.00;99787.03;5010127;28;20280;-66
2023/08/26 06:53:07;;;;;;;4.93;1.60;;;;;;;19.48;100.00;99786.69;5028179;28;20190;-66
2023/08/26 06:55:32;;;;;;;7.17;2.00;;;;;;;21.11;100.00;99787.03;5018111;28;20221;-66
2023/08/26 06:57:57;;;;;;;2.63;1.50;;;;;;;22.59;100.00;99790.56;5017894;28;20337;-65
2023/08/26 07:00:23;;;;;;;5.27;1.33;;;;;;;23.58;88.68;99790.03;5009844;28;20237;-66
2023/08/26 07:02:48;;;;;;;1.87;1.40;;;;;;;24.58;77.17;99797.78;5017670;28;20187;-67
2023/08/26 07:05:13;;;;;;;2.20;1.20;;;;;;;25.02;73.89;99785.56;5017878;28;20186;-67
2023/08/26 07:07:39;;;;;;;2.65;1.55;;;;;;;25.98;64.46;99787.06;5017584;28;20525;-66
2023/08/26 07:10:05;;;;;;;2.28;1.10;;;;;;;26.43;57.26;99787.53;5008547;28;20626;-67
2023/08/26 07:12:30;;;;;;;2.88;1.33;;;;;;;26.79;54.95;99785.69;5016614;28;20183;-66
2023/08/26 07:14:56;;;;;;;3.65;1.38;;;;;;;27.56;47.97;99782.81;5016351;28;20241;-66
2023/08/26 07:17:21;;;;;;;2.38;1.10;;;;;;;28.25;46.57;99776.22;5017801;28;20549;-67
2023/08/26 07:19:46;;;;;;;2.80;1.10;;;;;;;29.19;41.60;99789.03;5018008;28;20210;-66
2023/08/26 07:22:12;;;;;;;2.60;1.30;;;;;;;30.18;39.76;99782.31;5024874;28;20265;-67
2023/08/26 07:24:37;;;;;;;2.28;1.05;;;;;;;30.07;38.78;99795.28;5037389;28;20243;-67
2023/08/26 07:27:03;;;;;;;4.40;1.40;;;;;;;29.93;38.53;99791.13;5035167;28;20213;-66
2023/08/26 07:29:31;;;;;;;1.45;1.00;;;;;;;30.72;35.86;99783.31;5037698;28;20186;-65
2023/08/26 07:31:56;;;;;;;1.67;0.95;;;;;;;30.02;36.64;99786.38;5000081;28;20226;-65
2023/08/26 07:34:21;;;;;;;5.45;1.30;;;;;;;28.85;39.47;99779.69;5009594;28;20227;-65
2023/08/26 07:36:47;;;;;;;2.95;1.25;;;;;;;27.02;42.18;99780.88;5013094;28;20182;-65
2023/08/26 07:39:12;;;;;;;2.08;1.10;;;;;;;25.82;47.10;99778.41;5013288;28;20226;-65
2023/08/26 07:41:37;;;;;;;2.10;1.13;;;;;;;25.58;53.26;99783.09;5029578;28;20299;-65
2023/08/26 07:44:03;;;;;;;2.92;1.30;;;;;;;25.36;52.97;99789.34;5037134;28;20182;-68
2023/08/26 07:46:28;;;;;;;1.23;1.13;;;;;;;24.76;56.53;99792.97;5034724;28;20305;-65
2023/08/26 07:48:53;;;;;;;3.85;1.25;;;;;;;25.86;51.85;99773.56;5032771;28;20189;-65
2023/08/26 07:51:18;;;;;;;4.20;1.02;;;;;;;26.21;49.20;99777.09;5023847;28;20321;-64
2023/08/26 07:53:44;;;;;;;1.98;1.10;;;;;;;27.32;46.04;99767.31;5012809;28;20634;-66
2023/08/26 07:56:10;;;;;;;1.58;1.17;;;;;;;28.79;41.05;99771.56;5026360;28;20179;-65
2023/08/26 07:58:35;;;;;;;5.30;1.20;;;;;;;28.64;41.73;99777.09;5006404;28;20583;-65
2023/08/26 08:01:00;;;;;;;4.65;1.25;;;;;;;30.04;39.86;99776.34;4998572;28;20244;-65
2023/08/26 08:03:26;;;;;;;2.17;1.20;;;;;;;30.70;37.49;99780.09;5013146;28;20186;-66
2023/08/26 08:05:51;;;;;;;4.45;1.23;;;;;;;31.11;35.33;99780.38;5013520;28;21480;-67
2023/08/26 08:08:16;;;;;;;2.65;0.80;;;;;;;31.67;35.91;99780.94;5014104;28;20210;-67
2023/08/26 08:10:42;;;;;;;4.68;1.20;;;;;;;32.51;32.77;99779.78;5006693;28;20312;-66
2023/08/26 08:13:08;;;;;;;4.53;1.48;;;;;;;32.60;32.11;99780.22;5024437;28;20183;-66
2023/08/26 08:15:34;;;;;;;3.08;1.33;;;;;;;32.85;32.26;99784.44;5013561;28;20186;-68
2023/08/26 08:17:59;;;;;;;3.97;0.95;;;;;;;32.03;33.34;99781.72;5013957;28;20186;-67
2023/08/26 08:20:24;;;;;;;2.88;1.13;;;;;;;31.64;34.14;99783.25;5020738;28;20241;-67
2023/08/26 08:22:49;;;;;;;3.70;1.10;;;;;;;31.64;33.49;99775.28;5026266;28;20191;-66
2023/08/26 08:25:15;;;;;;;3.67;1.00;;;;;;;31.77;33.91;99783.03;5028657;28;20179;-66
2023/08/26 08:27:40;;;;;;;3.47;1.05;;;;;;;31.04;34.22;99782.31;5013666;28;20213;-66
2023/08/26 08:30:06;;;;;;;4.95;1.15;;;;;;;31.06;35.31;99785.50;5003899;28;20630;-67
2023/08/26 08:32:33;;;;;;;2.63;1.27;;;;;;;31.54;34.54;99781.97;5027781;28;20646;-65
2023/08/26 08:34:59;;;;;;;1.70;1.30;;;;;;;31.76;35.11;99781.41;5013090;28;20190;-66
2023/08/26 08:37:25;;;;;;;1.45;0.98;;;;;;;31.18;35.26;99781.06;5013546;28;20579;-66
2023/08/26 08:39:50;;;;;;;1.05;0.93;;;;;;;30.84;36.76;99791.34;5028618;28;20182;-67
2023/08/26 08:42:16;;;;;;;2.97;1.17;;;;;;;30.58;36.19;99784.56;5019071;28;20736;-66
2023/08/26 08:44:44;;;;;;;4.28;1.10;;;;;;;32.61;33.81;99789.00;5013201;28;20242;-68
2023/08/26 08:47:10;;;;;;;1.83;1.20;;;;;;;32.69;32.33;99791.31;5025600;28;20206;-67
2023/08/26 08:49:37;;;;;;;1.90;1.10;;;;;;;33.50;31.34;99797.50;5013274;28;20179;-67
2023/08/26 08:52:03;;;;;;;2.72;1.48;;;;;;;32.64;32.63;99797.34;5018368;28;20233;-68
2023/08/26 08:54:29;;;;;;;3.22;1.45;;;;;;;32.32;31.83;99792.44;5012664;28;20202;-67
2023/08/26 08:56:55;;;;;;;1.38;1.08;;;;;;;32.33;32.72;99796.72;5010526;28;20198;-66
2023/08/26 08:59:21;;;;;;;2.25;1.10;;;;;;;32.57;32.02;99799.31;5026872;28;20189;-65
2023/08/26 09:01:47;;;;;;;1.40;1.02;;;;;;;32.30;33.21;99799.06;5003217;28;20400;-66
2023/08/26 09:04:13;;;;;;;2.83;1.17;;;;;;;33.06;31.85;99798.91;5010657;28;20265;-65
2023/08/26 09:06:38;;;;;;;2.95;1.25;;;;;;;33.16;30.54;99806.28;5013160;28;20203;-66
2023/08/26 09:09:11;;;;;;;1.83;1.13;;;;;;;31.23;33.35;99801.66;5013523;28;20639;-66
2023/08/26 09:11:39;;;;;;;1.83;1.13;;;;;;;30.73;34.88;99797.44;5001643;28;20701;-65
2023/08/26 09:14:07;;;;;;;4.93;1.33;;;;;;;30.64;34.83;99807.53;5011124;28;20261;-68
2023/08/26 09:16:43;;;;;;;1.45;1.00;;;;;;;30.41;34.69;99797.56;5019223;28;20285;-68
2023/08/26 09:19:12;;;;;;;2.72;1.00;;;;;;;30.72;35.19;99793.16;5027655;28;20186;-68
2023/08/26 09:21:45;;;;;;;1.60;0.90;;;;;;;30.55;35.44;99792.94;4978008;28;20301;-68
2023/08/26 09:24:14;;;;;;;1.35;0.68;;;;;;;30.33;35.77;99796.03;4985140;28;20234;-64
2023/08/26 09:26:41;;;;;;;2.35;1.20;;;;;;;29.12;37.55;99798.88;5009859;28;20225;-64
2023/08/26 09:29:20;;;;;;;1.55;1.45;;;;;;;28.72;37.87;99788.50;5027112;28;20194;-64
2023/08/26 09:31:49;;;;;;;2.35;1.10;;;;;;;29.68;37.37;99778.69;5004184;28;20286;-66
2023/08/26 09:34:32;;;;;;;1.50;1.02;;;;;;;27.46;40.11;99778.75;5010826;28;20179;-65
2023/08/26 09:37:01;;;;;;;2.35;1.23;;;;;;;27.98;40.51;99773.63;5007447;28;20314;-65
2023/08/26 09:39:26;;;;;;;2.00;1.13;;;;;;;28.60;41.08;99775.09;5012416;28;20190;-65
2023/08/26 09:41:55;;;;;;;2.28;1.05;;;;;;;29.03;39.73;99781.63;5016221;28;20681;-65
2023/08/26 09:44:23;;;;;;;3.08;1.40;;;;;;;28.71;40.96;99774.44;5012740;28;20182;-65
2023/08/26 09:46:48;;;;;;;2.08;1.25;;;;;;;27.70;43.49;99782.59;5009531;28;20936;-64
2023/08/26 09:49:15;;;;;;;2.85;1.50;;;;;;;27.60;44.86;99771.63;5010911;28;20210;-64
2023/08/26 09:51:51;;;;;;;2.90;1.05;;;;;;;26.96;44.95;99770.31;5010468;28;20218;-64
2023/08/26 09:54:18;;;;;;;1.98;1.33;;;;;;;26.96;44.06;99770.31;5012646;28;20206;-64
2023/08/26 09:56:45;;;;;;;1.75;1.10;;;;;;;28.73;41.13;99769.75;5011505;28;20216;-64
2023/08/26 09:59:11;;;;;;;1.55;1.08;;;;;;;30.69;35.55;99764.41;5011536;28;20191;-64
2023/08/26 10:01:37;;;;;;;1.70;1.00;;;;;;;32.33;32.25;99771.97;5004254;28;20316;-64
2023/08/26 10:04:10;;;;;;;3.25;1.30;;;;;;;33.23;31.96;99774.97;5010926;28;20262;-66
2023/08/26 10:06:40;;;;;;;4.07;1.05;;;;;;;33.41;30.75;99779.25;5011978;28;20229;-65
2023/08/26 10:09:11;;;;;;;4.72;1.55;;;;;;;33.19;31.38;99778.34;5012290;28;20190;-65
2023/08/26 10:11:39;;;;;;;1.98;0.80;;;;;;;33.30;30.67;99769.47;5014022;28;20236;-65
2023/08/26 10:14:06;;;;;;;2.92;0.90;;;;;;;33.49;31.10;99767.38;5014868;28;20716;-65
2023/08/26 10:16:32;;;;;;;1.20;1.00;;;;;;;33.07;30.36;99779.22;5012419;28;20174;-65
2023/08/26 10:18:59;;;;;;;2.20;0.88;;;;;;;32.28;32.02;99767.38;5012121;28;20185;-65
2023/08/26 10:21:25;;;;;;;3.38;1.17;;;;;;;31.88;31.67;99762.78;5012691;28;20673;-64
2023/08/26 10:23:51;;;;;;;1.00;0.90;;;;;;;31.38;33.30;99753.38;5016597;28;20186;-65
2023/08/26 10:26:18;;;;;;;1.77;1.00;;;;;;;31.14;33.64;99752.56;5011755;28;20190;-65
2023/08/26 10:28:45;;;;;;;2.13;1.20;;;;;;;30.91;34.26;99751.41;5011617;28;20241;-66
2023/08/26 10:31:13;;;;;;;3.75;0.90;;;;;;;30.40;34.77;99764.94;5010114;28;20226;-65
2023/08/26 10:34:01;;;;;;;2.20;0.80;;;;;;;30.99;34.44;99767.03;5018356;28;20189;-66
2023/08/26 10:36:27;;;;;;;1.40;0.88;;;;;;;30.75;35.02;99766.16;5012120;28;20194;-65
2023/08/26 10:38:57;;;;;;;2.47;0.93;;;;;;;28.34;38.51;99767.06;5011934;28;20531;-64
2023/08/26 10:41:23;;;;;;;1.52;1.08;;;;;;;28.03;42.46;99763.25;5011214;28;20297;-64
2023/08/26 10:43:52;;;;;;;1.60;0.98;;;;;;;28.10;41.89;99765.88;5016951;28;20185;-64
2023/08/26 10:46:18;;;;;;;2.35;1.20;;;;;;;27.98;43.68;99762.22;5011097;28;20179;-64
2023/08/26 10:48:56;;;;;;;2.30;0.85;;;;;;;27.12;46.23;99751.44;5010523;28;20286;-64
2023/08/26 10:51:21;;;;;;;3.17;1.33;;;;;;;26.23;48.20;99755.78;5006010;28;20218;-64
2023/08/26 10:53:48;;;;;;;1.95;1.20;;;;;;;26.05;52.64;99759.72;5009099;28;20198;-63
2023/08/26 10:56:15;;;;;;;4.85;1.02;;;;;;;25.97;54.92;99757.22;5011076;28;20217;-65
2023/08/26 10:58:48;;;;;;;1.20;0.80;;;;;;;24.71;55.28;99760.31;5011978;28;20183;-64
2023/08/26 11:01:15;;;;;;;3.88;1.25;;;;;;;24.10;65.93;99761.34;5001111;28;20232;-64
2023/08/26 11:03:42;;;;;;;2.42;1.20;;;;;;;24.81;61.07;99758.25;5017691;28;20186;-66
2023/08/26 11:06:11;;;;;;;1.60;1.00;;;;;;;25.12;61.25;99751.88;5010892;28;20262;-66
2023/08/26 11:08:40;;;;;;;3.97;1.08;;;;;;;25.51;61.35;99739.28;5011719;28;20266;-64
2023/08/26 11:11:12;;;;;;;3.13;1.00;;;;;;;25.70;63.63;99738.63;4990142;28;20313;-65
2023/08/26 11:13:39;;;;;;;3.17;1.10;;;;;;;25.42;62.95;99752.56;5012823;28;20183;-65
2023/08/26 11:16:04;;;;;;;1.75;1.15;;;;;;;25.92;55.04;99749.94;5011361;28;20195;-65
2023/08/26 11:18:30;;;;;;;2.03;0.93;;;;;;;25.16;51.90;99753.13;5014532;28;20665;-65
2023/08/26 11:20:56;;;;;;;1.33;0.95;;;;;;;25.17;58.21;99749.50;5007254;28;20265;-64
2023/08/26 11:23:23;;;;;;;3.45;0.85;;;;;;;24.45;62.60;99757.19;5023301;28;20606;-65
2023/08/26 11:25:48;;;;;;;2.65;1.48;;;;;;;25.18;63.42;99759.03;5013044;28;20198;-64